sensor_id;sensor_type;location;lat;lon;timestamp;pressure;altitude;pressure_sealevel;temperature;humidity
29371;BME280;16357;52.188;7.838;2022-08-19T00:04:05;100619.38;;;21.95;57.14
29371;BME280;16357;52.188;7.838;2022-08-19T00:06:34;100627.56;;;21.95;56.92
29371;BME280;16357;52.188;7.838;2022-08-19T00:09:05;100625.91;;;21.94;56.83
29371;BME280;16357;52.188;7.838;2022-08-19T00:11:32;100618.75;;;21.92;57.07
29371;BME280;16357;52.188;7.838;2022-08-19T00:14:00;100625.31;;;21.91;56.98
29371;BME280;16357;52.188;7.838;2022-08-19T00:16:27;100627.22;;;21.91;56.87
29371;BME280;16357;52.188;7.838;2022-08-19T00:18:54;100629.34;;;21.89;57.13
29371;BME280;16357;52.188;7.838;2022-08-19T00:21:23;100630.16;;;21.89;57.45
29371;BME280;16357;52.188;7.838;2022-08-19T00:23:50;100632.53;;;21.86;57.21
29371;BME280;16357;52.188;7.838;2022-08-19T00:26:16;100633.38;;;21.86;57.64
29371;BME280;16357;52.188;7.838;2022-08-19T00:28:43;100634.66;;;21.84;57.63
29371;BME280;16357;52.188;7.838;2022-08-19T00:31:09;100641.41;;;21.81;57.49
29371;BME280;16357;52.188;7.838;2022-08-19T00:33:36;100629.28;;;21.77;57.72
29371;BME280;16357;52.188;7.838;2022-08-19T00:36:05;100633.09;;;21.76;57.57
29371;BME280;16357;52.188;7.838;2022-08-19T00:38:34;100639.63;;;21.75;57.89
29371;BME280;16357;52.188;7.838;2022-08-19T00:41:05;100641.50;;;21.75;57.74
29371;BME280;16357;52.188;7.838;2022-08-19T00:43:31;100636.28;;;21.73;57.75
29371;BME280;16357;52.188;7.838;2022-08-19T00:45:58;100636.28;;;21.73;57.58
29371;BME280;16357;52.188;7.838;2022-08-19T00:48:24;100629.16;;;21.72;57.75
29371;BME280;16357;52.188;7.838;2022-08-19T00:50:52;100631.88;;;21.72;57.88
29371;BME280;16357;52.188;7.838;2022-08-19T00:53:22;100632.75;;;21.73;57.72
29371;BME280;16357;52.188;7.838;2022-08-19T00:55:50;100629.16;;;21.72;57.84
29371;BME280;16357;52.188;7.838;2022-08-19T00:58:20;100627.50;;;21.71;57.76
29371;BME280;16357;52.188;7.838;2022-08-19T01:00:48;100627.50;;;21.71;57.96
29371;BME280;16357;52.188;7.838;2022-08-19T01:03:17;100620.38;;;21.70;57.62
29371;BME280;16357;52.188;7.838;2022-08-19T01:05:45;100624.16;;;21.69;57.86
29371;BME280;16357;52.188;7.838;2022-08-19T01:08:14;100617.25;;;21.66;57.92
29371;BME280;16357;52.188;7.838;2022-08-19T01:10:45;100615.41;;;21.67;57.67
29371;BME280;16357;52.188;7.838;2022-08-19T01:13:19;100613.72;;;21.66;57.59
29371;BME280;16357;52.188;7.838;2022-08-19T01:15:50;100603.88;;;21.65;57.82
29371;BME280;16357;52.188;7.838;2022-08-19T01:18:18;100614.19;;;21.63;58.45
29371;BME280;16357;52.188;7.838;2022-08-19T01:20:46;100608.13;;;21.61;57.82
29371;BME280;16357;52.188;7.838;2022-08-19T01:23:13;100613.81;;;21.59;58.24
29371;BME280;16357;52.188;7.838;2022-08-19T01:25:48;100610.84;;;21.61;57.84
29371;BME280;16357;52.188;7.838;2022-08-19T01:28:19;100603.13;;;21.58;57.84
29371;BME280;16357;52.188;7.838;2022-08-19T01:30:59;100602.28;;;21.57;58.04
29371;BME280;16357;52.188;7.838;2022-08-19T01:33:33;100602.53;;;21.56;58.32
29371;BME280;16357;52.188;7.838;2022-08-19T01:36:07;100612.59;;;21.55;58.00
29371;BME280;16357;52.188;7.838;2022-08-19T01:38:38;100612.25;;;21.52;58.03
29371;BME280;16357;52.188;7.838;2022-08-19T01:41:11;100613.53;;;21.49;57.94
29371;BME280;16357;52.188;7.838;2022-08-19T01:43:37;100609.38;;;21.46;57.95
29371;BME280;16357;52.188;7.838;2022-08-19T01:46:24;100612.59;;;21.43;58.61
29371;BME280;16357;52.188;7.838;2022-08-19T01:48:51;100616.59;;;21.41;58.47
29371;BME280;16357;52.188;7.838;2022-08-19T01:51:17;100612.44;;;21.38;58.66
29371;BME280;16357;52.188;7.838;2022-08-19T01:53:47;100607.16;;;21.37;58.33
29371;BME280;16357;52.188;7.838;2022-08-19T01:56:14;100602.41;;;21.32;58.83
29371;BME280;16357;52.188;7.838;2022-08-19T01:58:45;100600.75;;;21.31;58.28
29371;BME280;16357;52.188;7.838;2022-08-19T02:01:13;100603.94;;;21.28;58.58
29371;BME280;16357;52.188;7.838;2022-08-19T02:03:40;100604.16;;;21.26;58.32
29371;BME280;16357;52.188;7.838;2022-08-19T02:06:07;100606.28;;;21.24;58.40
29371;BME280;16357;52.188;7.838;2022-08-19T02:08:36;100611.97;;;21.23;58.46
29371;BME280;16357;52.188;7.838;2022-08-19T02:11:05;100613.28;;;21.20;58.51
29371;BME280;16357;52.188;7.838;2022-08-19T02:13:32;100611.00;;;21.17;58.39
29371;BME280;16357;52.188;7.838;2022-08-19T02:15:59;100608.50;;;21.16;58.80
29371;BME280;16357;52.188;7.838;2022-08-19T02:18:29;100609.78;;;21.13;58.48
29371;BME280;16357;52.188;7.838;2022-08-19T02:20:56;100602.91;;;21.11;58.32
29371;BME280;16357;52.188;7.838;2022-08-19T02:23:22;100609.63;;;21.08;58.38
29371;BME280;16357;52.188;7.838;2022-08-19T02:25:50;100601.09;;;21.04;58.34
29371;BME280;16357;52.188;7.838;2022-08-19T02:28:17;100597.16;;;21.00;58.71
29371;BME280;16357;52.188;7.838;2022-08-19T02:30:45;100590.72;;;20.95;59.11
29371;BME280;16357;52.188;7.838;2022-08-19T02:33:12;100585.72;;;20.92;58.81
29371;BME280;16357;52.188;7.838;2022-08-19T02:35:45;100590.81;;;20.88;58.84
29371;BME280;16357;52.188;7.838;2022-08-19T02:38:13;100586.25;;;20.82;58.61
29371;BME280;16357;52.188;7.838;2022-08-19T02:40:55;100589.91;;;20.76;58.96
29371;BME280;16357;52.188;7.838;2022-08-19T02:43:25;100592.94;;;20.68;59.30
29371;BME280;16357;52.188;7.838;2022-08-19T02:45:53;100592.16;;;20.60;59.70
29371;BME280;16357;52.188;7.838;2022-08-19T02:48:22;100594.72;;;20.55;59.80
29371;BME280;16357;52.188;7.838;2022-08-19T02:50:51;100589.91;;;20.51;59.97
29371;BME280;16357;52.188;7.838;2022-08-19T02:53:23;100603.16;;;20.47;59.85
29371;BME280;16357;52.188;7.838;2022-08-19T02:55:51;100593.19;;;20.41;60.22
29371;BME280;16357;52.188;7.838;2022-08-19T02:58:19;100591.72;;;20.38;60.08
29371;BME280;16357;52.188;7.838;2022-08-19T03:00:49;100600.94;;;20.37;59.81
29371;BME280;16357;52.188;7.838;2022-08-19T03:03:16;100593.47;;;20.33;60.09
29371;BME280;16357;52.188;7.838;2022-08-19T03:05:43;100589.88;;;20.32;60.14
29371;BME280;16357;52.188;7.838;2022-08-19T03:08:21;100586.56;;;20.30;60.13
29371;BME280;16357;52.188;7.838;2022-08-19T03:10:47;100590.59;;;20.28;59.93
29371;BME280;16357;52.188;7.838;2022-08-19T03:13:16;100593.31;;;20.28;59.81
29371;BME280;16357;52.188;7.838;2022-08-19T03:15:46;100581.78;;;20.26;59.79
29371;BME280;16357;52.188;7.838;2022-08-19T03:18:13;100584.72;;;20.24;60.08
29371;BME280;16357;52.188;7.838;2022-08-19T03:20:58;100571.34;;;20.23;59.89
29371;BME280;16357;52.188;7.838;2022-08-19T03:23:25;100577.00;;;20.21;60.03
29371;BME280;16357;52.188;7.838;2022-08-19T03:25:53;100585.44;;;20.20;60.22
29371;BME280;16357;52.188;7.838;2022-08-19T03:28:41;100594.88;;;20.17;60.13
29371;BME280;16357;52.188;7.838;2022-08-19T03:31:17;100591.53;;;20.15;60.06
29371;BME280;16357;52.188;7.838;2022-08-19T03:34:03;100594.47;;;20.13;59.94
29371;BME280;16357;52.188;7.838;2022-08-19T03:36:33;100599.28;;;20.11;60.11
29371;BME280;16357;52.188;7.838;2022-08-19T03:39:01;100599.53;;;20.10;60.25
29371;BME280;16357;52.188;7.838;2022-08-19T03:41:31;100605.81;;;20.10;60.09
29371;BME280;16357;52.188;7.838;2022-08-19T03:44:10;100599.75;;;20.08;60.15
29371;BME280;16357;52.188;7.838;2022-08-19T03:46:44;100608.16;;;20.07;60.10
29371;BME280;16357;52.188;7.838;2022-08-19T03:49:11;100613.81;;;20.05;60.10
29371;BME280;16357;52.188;7.838;2022-08-19T03:51:41;100621.59;;;20.02;59.96
29371;BME280;16357;52.188;7.838;2022-08-19T03:54:10;100619.09;;;20.00;59.99
29371;BME280;16357;52.188;7.838;2022-08-19T03:56:39;100610.53;;;19.97;60.12
29371;BME280;16357;52.188;7.838;2022-08-19T03:59:08;100606.38;;;19.94;59.87
29371;BME280;16357;52.188;7.838;2022-08-19T04:01:35;100606.81;;;19.91;60.16
29371;BME280;16357;52.188;7.838;2022-08-19T04:04:02;100609.97;;;19.88;60.31
29371;BME280;16357;52.188;7.838;2022-08-19T04:06:32;100613.75;;;19.87;59.91
29371;BME280;16357;52.188;7.838;2022-08-19T04:09:02;100613.38;;;19.83;60.15
29371;BME280;16357;52.188;7.838;2022-08-19T04:11:34;100608.13;;;19.82;60.15
29371;BME280;16357;52.188;7.838;2022-08-19T04:14:12;100614.84;;;19.79;60.34
29371;BME280;16357;52.188;7.838;2022-08-19T04:16:38;100615.09;;;19.78;60.61
29371;BME280;16357;52.188;7.838;2022-08-19T04:19:06;100612.56;;;19.76;60.95
29371;BME280;16357;52.188;7.838;2022-08-19T04:21:33;100612.78;;;19.74;60.95
29371;BME280;16357;52.188;7.838;2022-08-19T04:24:00;100621.19;;;19.73;61.00
29371;BME280;16357;52.188;7.838;2022-08-19T04:26:33;100615.94;;;19.71;60.69
29371;BME280;16357;52.188;7.838;2022-08-19T04:29:07;100623.28;;;19.71;60.54
29371;BME280;16357;52.188;7.838;2022-08-19T04:31:39;100618.03;;;19.69;60.55
29371;BME280;16357;52.188;7.838;2022-08-19T04:34:07;100612.59;;;19.69;60.66
29371;BME280;16357;52.188;7.838;2022-08-19T04:36:36;100609.88;;;19.69;60.63
29371;BME280;16357;52.188;7.838;2022-08-19T04:39:06;100611.78;;;19.69;60.75
29371;BME280;16357;52.188;7.838;2022-08-19T04:41:34;100618.28;;;19.68;61.19
29371;BME280;16357;52.188;7.838;2022-08-19T04:44:20;100619.13;;;19.68;60.89
29371;BME280;16357;52.188;7.838;2022-08-19T04:46:49;100621.00;;;19.68;60.69
29371;BME280;16357;52.188;7.838;2022-08-19T04:49:19;100625.38;;;19.69;60.39
29371;BME280;16357;52.188;7.838;2022-08-19T04:51:49;100626.22;;;19.69;60.97
29371;BME280;16357;52.188;7.838;2022-08-19T04:54:17;100623.50;;;19.69;60.96
29371;BME280;16357;52.188;7.838;2022-08-19T04:57:03;100631.44;;;19.71;60.86
29371;BME280;16357;52.188;7.838;2022-08-19T04:59:32;100625.81;;;19.72;60.93
29371;BME280;16357;52.188;7.838;2022-08-19T05:01:59;100629.13;;;19.74;60.90
29371;BME280;16357;52.188;7.838;2022-08-19T05:04:26;100633.28;;;19.77;61.06
29371;BME280;16357;52.188;7.838;2022-08-19T05:06:54;100635.81;;;19.79;61.23
29371;BME280;16357;52.188;7.838;2022-08-19T05:09:27;100638.06;;;19.82;60.95
29371;BME280;16357;52.188;7.838;2022-08-19T05:12:14;100633.25;;;19.84;61.00
29371;BME280;16357;52.188;7.838;2022-08-19T05:14:41;100623.56;;;19.88;60.78
29371;BME280;16357;52.188;7.838;2022-08-19T05:17:08;100635.09;;;19.90;60.87
29371;BME280;16357;52.188;7.838;2022-08-19T05:19:52;100629.19;;;19.93;60.81
29371;BME280;16357;52.188;7.838;2022-08-19T05:22:38;100633.16;;;19.97;60.72
29371;BME280;16357;52.188;7.838;2022-08-19T05:25:09;100640.88;;;20.00;60.54
29371;BME280;16357;52.188;7.838;2022-08-19T05:27:38;100646.94;;;20.02;60.83
29371;BME280;16357;52.188;7.838;2022-08-19T05:30:06;100651.13;;;20.05;60.85
29371;BME280;16357;52.188;7.838;2022-08-19T05:32:32;100644.41;;;20.07;61.00
29371;BME280;16357;52.188;7.838;2022-08-19T05:34:59;100651.06;;;20.11;60.99
29371;BME280;16357;52.188;7.838;2022-08-19T05:37:25;100652.28;;;20.15;61.11
29371;BME280;16357;52.188;7.838;2022-08-19T05:39:53;100652.47;;;20.21;61.20
29371;BME280;16357;52.188;7.838;2022-08-19T05:42:21;100647.19;;;20.26;61.06
29371;BME280;16357;52.188;7.838;2022-08-19T05:44:49;100641.28;;;20.29;61.18
29371;BME280;16357;52.188;7.838;2022-08-19T05:47:16;100639.53;;;20.34;61.42
29371;BME280;16357;52.188;7.838;2022-08-19T05:49:45;100644.34;;;20.39;61.36
29371;BME280;16357;52.188;7.838;2022-08-19T05:52:13;100644.50;;;20.44;61.45
29371;BME280;16357;52.188;7.838;2022-08-19T05:54:44;100648.22;;;20.50;61.69
29371;BME280;16357;52.188;7.838;2022-08-19T05:57:19;100645.47;;;20.56;61.61
29371;BME280;16357;52.188;7.838;2022-08-19T05:59:46;100645.38;;;20.63;61.73
29371;BME280;16357;52.188;7.838;2022-08-19T06:02:18;100645.34;;;20.70;61.51
29371;BME280;16357;52.188;7.838;2022-08-19T06:04:45;100642.31;;;20.78;61.85
29371;BME280;16357;52.188;7.838;2022-08-19T06:07:12;100638.66;;;20.84;61.67
29371;BME280;16357;52.188;7.838;2022-08-19T06:09:40;100637.75;;;20.90;61.74
29371;BME280;16357;52.188;7.838;2022-08-19T06:12:09;100632.84;;;20.99;61.71
29371;BME280;16357;52.188;7.838;2022-08-19T06:14:36;100630.03;;;21.05;61.93
29371;BME280;16357;52.188;7.838;2022-08-19T06:17:07;100634.59;;;21.12;61.76
29371;BME280;16357;52.188;7.838;2022-08-19T06:19:34;100632.84;;;21.17;61.93
29371;BME280;16357;52.188;7.838;2022-08-19T06:22:06;100624.53;;;21.24;61.81
29371;BME280;16357;52.188;7.838;2022-08-19T06:24:34;100621.75;;;21.31;61.91
29371;BME280;16357;52.188;7.838;2022-08-19T06:27:02;100631.72;;;21.37;61.22
29371;BME280;16357;52.188;7.838;2022-08-19T06:29:29;100617.44;;;21.41;61.84
29371;BME280;16357;52.188;7.838;2022-08-19T06:31:58;100614.84;;;21.46;61.65
29371;BME280;16357;52.188;7.838;2022-08-19T06:34:27;100614.72;;;21.53;61.55
29371;BME280;16357;52.188;7.838;2022-08-19T06:36:55;100620.56;;;21.57;61.72
29371;BME280;16357;52.188;7.838;2022-08-19T06:39:27;100615.00;;;21.63;61.54
29371;BME280;16357;52.188;7.838;2022-08-19T06:42:06;100616.22;;;21.67;61.57
29371;BME280;16357;52.188;7.838;2022-08-19T06:44:38;100618.00;;;21.74;61.51
29371;BME280;16357;52.188;7.838;2022-08-19T06:47:11;100609.94;;;21.79;61.69
29371;BME280;16357;52.188;7.838;2022-08-19T06:49:48;100606.06;;;21.86;61.61
29371;BME280;16357;52.188;7.838;2022-08-19T06:52:16;100600.47;;;21.93;61.31
29371;BME280;16357;52.188;7.838;2022-08-19T06:54:43;100611.28;;;22.00;61.42
29371;BME280;16357;52.188;7.838;2022-08-19T06:57:23;100615.34;;;22.09;61.30
29371;BME280;16357;52.188;7.838;2022-08-19T06:59:50;100613.34;;;22.16;61.28
29371;BME280;16357;52.188;7.838;2022-08-19T07:02:16;100611.97;;;22.25;60.93
29371;BME280;16357;52.188;7.838;2022-08-19T07:04:43;100608.88;;;22.33;60.79
29371;BME280;16357;52.188;7.838;2022-08-19T07:07:14;100611.84;;;22.44;60.63
29371;BME280;16357;52.188;7.838;2022-08-19T07:09:48;100610.66;;;22.51;60.47
29371;BME280;16357;52.188;7.838;2022-08-19T07:12:26;100616.59;;;22.60;60.46
29371;BME280;16357;52.188;7.838;2022-08-19T07:14:59;100622.88;;;22.72;59.87
29371;BME280;16357;52.188;7.838;2022-08-19T07:17:27;100615.13;;;22.81;59.42
29371;BME280;16357;52.188;7.838;2022-08-19T07:19:54;100619.41;;;22.89;59.33
29371;BME280;16357;52.188;7.838;2022-08-19T07:22:21;100620.47;;;22.99;59.09
29371;BME280;16357;52.188;7.838;2022-08-19T07:24:51;100626.16;;;23.10;58.94
29371;BME280;16357;52.188;7.838;2022-08-19T07:27:19;100622.78;;;23.19;58.80
29371;BME280;16357;52.188;7.838;2022-08-19T07:29:49;100623.00;;;23.30;58.62
29371;BME280;16357;52.188;7.838;2022-08-19T07:32:23;100623.19;;;23.40;58.26
29371;BME280;16357;52.188;7.838;2022-08-19T07:34:55;100628.03;;;23.50;58.01
29371;BME280;16357;52.188;7.838;2022-08-19T07:37:23;100624.91;;;23.58;58.04
29371;BME280;16357;52.188;7.838;2022-08-19T07:39:58;100624.00;;;23.69;57.94
29371;BME280;16357;52.188;7.838;2022-08-19T07:42:25;100628.06;;;23.78;57.17
29371;BME280;16357;52.188;7.838;2022-08-19T07:44:51;100621.91;;;23.88;57.37
29371;BME280;16357;52.188;7.838;2022-08-19T07:47:18;100637.69;;;23.98;57.07
29371;BME280;16357;52.188;7.838;2022-08-19T07:50:08;100637.63;;;24.09;56.44
29371;BME280;16357;52.188;7.838;2022-08-19T07:52:36;100642.69;;;24.18;55.95
29371;BME280;16357;52.188;7.838;2022-08-19T07:55:06;100648.34;;;24.28;56.11
29371;BME280;16357;52.188;7.838;2022-08-19T07:57:53;100645.78;;;24.38;56.12
29371;BME280;16357;52.188;7.838;2022-08-19T08:00:19;100645.63;;;24.45;55.70
29371;BME280;16357;52.188;7.838;2022-08-19T08:02:50;100648.75;;;24.53;55.25
29371;BME280;16357;52.188;7.838;2022-08-19T08:05:16;100651.94;;;24.62;55.21
29371;BME280;16357;52.188;7.838;2022-08-19T08:08:05;100646.00;;;24.70;55.40
29371;BME280;16357;52.188;7.838;2022-08-19T08:11:16;100655.78;;;24.83;55.03
29371;BME280;16357;52.188;7.838;2022-08-19T08:13:45;100651.50;;;24.92;54.40
29371;BME280;16357;52.188;7.838;2022-08-19T08:16:27;100648.66;;;25.04;54.60
29371;BME280;16357;52.188;7.838;2022-08-19T08:18:57;100646.00;;;25.14;54.30
29371;BME280;16357;52.188;7.838;2022-08-19T08:21:23;100657.16;;;25.25;54.10
29371;BME280;16357;52.188;7.838;2022-08-19T08:23:50;100655.63;;;25.34;53.78
29371;BME280;16357;52.188;7.838;2022-08-19T08:26:21;100662.06;;;25.45;53.06
29371;BME280;16357;52.188;7.838;2022-08-19T08:28:48;100661.38;;;25.54;52.42
29371;BME280;16357;52.188;7.838;2022-08-19T08:31:15;100667.22;;;25.63;51.96
29371;BME280;16357;52.188;7.838;2022-08-19T08:33:41;100664.84;;;25.72;52.28
29371;BME280;16357;52.188;7.838;2022-08-19T08:36:09;100671.78;;;25.79;51.50
29371;BME280;16357;52.188;7.838;2022-08-19T08:38:36;100674.09;;;25.88;51.63
29371;BME280;16357;52.188;7.838;2022-08-19T08:41:32;100672.00;;;26.00;51.87
29371;BME280;16357;52.188;7.838;2022-08-19T08:44:02;100673.19;;;26.09;51.63
29371;BME280;16357;52.188;7.838;2022-08-19T08:46:36;100670.53;;;26.19;51.30
29371;BME280;16357;52.188;7.838;2022-08-19T08:52:28;100679.00;;;26.45;51.13
29371;BME280;16357;52.188;7.838;2022-08-19T08:55:00;100664.78;;;26.53;50.52
29371;BME280;16357;52.188;7.838;2022-08-19T08:57:49;100664.03;;;26.63;50.03
29371;BME280;16357;52.188;7.838;2022-08-19T09:02:51;100666.56;;;26.75;48.79
29371;BME280;16357;52.188;7.838;2022-08-19T09:05:21;100668.78;;;26.78;48.66
29371;BME280;16357;52.188;7.838;2022-08-19T09:08:08;100672.91;;;26.80;48.88
29371;BME280;16357;52.188;7.838;2022-08-19T09:10:52;100666.34;;;26.81;49.00
29371;BME280;16357;52.188;7.838;2022-08-19T09:15:53;100668.81;;;26.83;48.12
29371;BME280;16357;52.188;7.838;2022-08-19T09:18:23;100664.16;;;26.83;47.51
29371;BME280;16357;52.188;7.838;2022-08-19T09:20:49;100667.44;;;26.85;47.46
29371;BME280;16357;52.188;7.838;2022-08-19T09:23:16;100663.31;;;26.88;47.60
29371;BME280;16357;52.188;7.838;2022-08-19T09:25:42;100670.50;;;26.89;47.17
29371;BME280;16357;52.188;7.838;2022-08-19T09:28:09;100657.84;;;26.93;47.20
29371;BME280;16357;52.188;7.838;2022-08-19T09:30:52;100659.56;;;26.99;47.21
29371;BME280;16357;52.188;7.838;2022-08-19T09:33:24;100655.16;;;27.08;47.61
29371;BME280;16357;52.188;7.838;2022-08-19T09:36:13;100651.69;;;27.18;47.07
29371;BME280;16357;52.188;7.838;2022-08-19T09:41:58;100655.91;;;27.46;46.59
29371;BME280;16357;52.188;7.838;2022-08-19T09:44:45;100658.97;;;27.60;45.89
29371;BME280;16357;52.188;7.838;2022-08-19T09:47:36;100655.13;;;27.76;45.36
29371;BME280;16357;52.188;7.838;2022-08-19T09:50:07;100656.59;;;27.94;44.60
29371;BME280;16357;52.188;7.838;2022-08-19T09:52:36;100653.28;;;28.13;44.06
29371;BME280;16357;52.188;7.838;2022-08-19T09:55:08;100651.91;;;28.31;43.54
29371;BME280;16357;52.188;7.838;2022-08-19T09:57:35;100645.28;;;28.47;43.23
29371;BME280;16357;52.188;7.838;2022-08-19T10:00:04;100656.31;;;28.62;43.12
29371;BME280;16357;52.188;7.838;2022-08-19T10:02:32;100653.22;;;28.74;43.00
29371;BME280;16357;52.188;7.838;2022-08-19T10:04:59;100654.84;;;28.85;42.78
29371;BME280;16357;52.188;7.838;2022-08-19T10:07:52;100645.97;;;28.94;42.87
29371;BME280;16357;52.188;7.838;2022-08-19T10:10:22;100639.91;;;28.97;42.37
29371;BME280;16357;52.188;7.838;2022-08-19T10:12:49;100643.19;;;28.99;41.85
29371;BME280;16357;52.188;7.838;2022-08-19T10:15:16;100651.22;;;29.00;41.33
29371;BME280;16357;52.188;7.838;2022-08-19T10:17:54;100638.78;;;29.03;41.36
29371;BME280;16357;52.188;7.838;2022-08-19T10:20:21;100638.22;;;29.06;41.09
29371;BME280;16357;52.188;7.838;2022-08-19T10:22:49;100639.34;;;29.10;40.21
29371;BME280;16357;52.188;7.838;2022-08-19T10:25:18;100640.41;;;29.14;39.51
29371;BME280;16357;52.188;7.838;2022-08-19T10:27:45;100646.72;;;29.20;38.25
29371;BME280;16357;52.188;7.838;2022-08-19T10:30:16;100644.78;;;29.25;38.92
29371;BME280;16357;52.188;7.838;2022-08-19T10:32:45;100638.66;;;29.34;38.69
29371;BME280;16357;52.188;7.838;2022-08-19T10:35:13;100635.56;;;29.45;38.85
29371;BME280;16357;52.188;7.838;2022-08-19T10:37:47;100636.59;;;29.60;38.42
29371;BME280;16357;52.188;7.838;2022-08-19T10:40:27;100629.03;;;29.75;38.41
29371;BME280;16357;52.188;7.838;2022-08-19T10:42:55;100633.34;;;29.92;37.52
29371;BME280;16357;52.188;7.838;2022-08-19T10:45:23;100628.25;;;30.04;37.76
29371;BME280;16357;52.188;7.838;2022-08-19T10:47:53;100625.94;;;30.16;37.84
29371;BME280;16357;52.188;7.838;2022-08-19T10:50:20;100620.94;;;30.24;37.51
29371;BME280;16357;52.188;7.838;2022-08-19T10:53:07;100620.06;;;30.28;37.59
29371;BME280;16357;52.188;7.838;2022-08-19T10:55:37;100620.28;;;30.32;37.36
29371;BME280;16357;52.188;7.838;2022-08-19T10:58:22;100616.41;;;30.33;37.28
29371;BME280;16357;52.188;7.838;2022-08-19T11:00:57;100613.63;;;30.33;37.17
29371;BME280;16357;52.188;7.838;2022-08-19T11:03:25;100615.88;;;30.31;36.97
29371;BME280;16357;52.188;7.838;2022-08-19T11:06:06;100616.41;;;30.33;37.94
29371;BME280;16357;52.188;7.838;2022-08-19T11:08:35;100619.69;;;30.35;37.11
29371;BME280;16357;52.188;7.838;2022-08-19T11:11:05;100609.72;;;30.39;37.05
29371;BME280;16357;52.188;7.838;2022-08-19T11:13:35;100612.94;;;30.46;37.23
29371;BME280;16357;52.188;7.838;2022-08-19T11:16:10;100609.25;;;30.56;37.04
29371;BME280;16357;52.188;7.838;2022-08-19T11:18:39;100612.72;;;30.67;36.18
29371;BME280;16357;52.188;7.838;2022-08-19T11:21:12;100615.09;;;30.78;36.30
29371;BME280;16357;52.188;7.838;2022-08-19T11:23:38;100609.69;;;30.92;35.98
29371;BME280;16357;52.188;7.838;2022-08-19T11:26:06;100597.34;;;31.03;36.17
29371;BME280;16357;52.188;7.838;2022-08-19T11:28:32;100600.53;;;31.16;35.42
29371;BME280;16357;52.188;7.838;2022-08-19T11:30:59;100605.41;;;31.24;35.03
29371;BME280;16357;52.188;7.838;2022-08-19T11:33:25;100592.88;;;31.26;35.01
29371;BME280;16357;52.188;7.838;2022-08-19T11:35:53;100592.66;;;31.23;34.51
29371;BME280;16357;52.188;7.838;2022-08-19T11:38:20;100593.84;;;31.17;34.39
29371;BME280;16357;52.188;7.838;2022-08-19T11:40:54;100582.28;;;31.10;34.61
29371;BME280;16357;52.188;7.838;2022-08-19T11:43:21;100581.31;;;31.00;34.67
29371;BME280;16357;52.188;7.838;2022-08-19T11:45:48;100585.84;;;30.91;33.95
29371;BME280;16357;52.188;7.838;2022-08-19T11:48:14;100577.94;;;30.79;34.11
29371;BME280;16357;52.188;7.838;2022-08-19T11:50:41;100584.97;;;30.72;34.30
29371;BME280;16357;52.188;7.838;2022-08-19T11:53:08;100577.53;;;30.67;34.31
29371;BME280;16357;52.188;7.838;2022-08-19T11:55:37;100578.06;;;30.69;34.29
29371;BME280;16357;52.188;7.838;2022-08-19T11:58:09;100578.84;;;30.75;33.96
29371;BME280;16357;52.188;7.838;2022-08-19T12:00:44;100569.41;;;30.81;34.18
29371;BME280;16357;52.188;7.838;2022-08-19T12:03:14;100569.34;;;30.86;33.88
29371;BME280;16357;52.188;7.838;2022-08-19T12:05:41;100568.41;;;30.91;34.47
29371;BME280;16357;52.188;7.838;2022-08-19T12:08:08;100564.75;;;30.95;34.17
29371;BME280;16357;52.188;7.838;2022-08-19T12:10:35;100570.84;;;30.97;34.08
29371;BME280;16357;52.188;7.838;2022-08-19T12:13:01;100565.50;;;31.01;34.27
29371;BME280;16357;52.188;7.838;2022-08-19T12:15:28;100570.16;;;31.05;34.26
29371;BME280;16357;52.188;7.838;2022-08-19T12:18:03;100571.75;;;31.12;34.37
29371;BME280;16357;52.188;7.838;2022-08-19T12:20:30;100572.19;;;31.19;34.50
29371;BME280;16357;52.188;7.838;2022-08-19T12:23:00;100568.75;;;31.27;33.46
29371;BME280;16357;52.188;7.838;2022-08-19T12:25:27;100563.66;;;31.34;33.59
29371;BME280;16357;52.188;7.838;2022-08-19T12:27:53;100558.59;;;31.41;33.35
29371;BME280;16357;52.188;7.838;2022-08-19T12:30:23;100556.78;;;31.51;33.40
29371;BME280;16357;52.188;7.838;2022-08-19T12:32:49;100560.00;;;31.58;32.96
29371;BME280;16357;52.188;7.838;2022-08-19T12:35:18;100563.19;;;31.65;32.44
29371;BME280;16357;52.188;7.838;2022-08-19T12:37:48;100551.75;;;31.71;32.47
29371;BME280;16357;52.188;7.838;2022-08-19T12:40:23;100551.94;;;31.75;32.66
29371;BME280;16357;52.188;7.838;2022-08-19T12:42:52;100545.81;;;31.78;31.89
29371;BME280;16357;52.188;7.838;2022-08-19T12:45:18;100552.69;;;31.81;31.80
29371;BME280;16357;52.188;7.838;2022-08-19T12:47:46;100545.50;;;31.80;31.41
29371;BME280;16357;52.188;7.838;2022-08-19T12:50:13;100542.19;;;31.78;31.33
29371;BME280;16357;52.188;7.838;2022-08-19T12:52:39;100536.97;;;31.76;31.35
29371;BME280;16357;52.188;7.838;2022-08-19T12:55:09;100540.84;;;31.75;31.63
29371;BME280;16357;52.188;7.838;2022-08-19T12:57:36;100535.28;;;31.75;31.35
29371;BME280;16357;52.188;7.838;2022-08-19T13:00:10;100546.41;;;31.75;31.51
29371;BME280;16357;52.188;7.838;2022-08-19T13:02:44;100554.72;;;31.75;31.91
29371;BME280;16357;52.188;7.838;2022-08-19T13:05:17;100544.75;;;31.74;32.10
29371;BME280;16357;52.188;7.838;2022-08-19T13:07:46;100544.84;;;31.69;31.59
29371;BME280;16357;52.188;7.838;2022-08-19T13:10:15;100549.88;;;31.67;31.90
29371;BME280;16357;52.188;7.838;2022-08-19T13:12:43;100548.84;;;31.63;31.85
29371;BME280;16357;52.188;7.838;2022-08-19T13:15:11;100548.84;;;31.63;31.86
29371;BME280;16357;52.188;7.838;2022-08-19T13:17:40;100544.41;;;31.62;32.09
29371;BME280;16357;52.188;7.838;2022-08-19T13:20:08;100538.84;;;31.62;32.08
29371;BME280;16357;52.188;7.838;2022-08-19T13:22:35;100538.25;;;31.65;31.77